createdAt,value
2016-11-11T00:00:17.378Z,4.46
2016-11-11T00:01:17.461Z,4.61
2016-11-11T00:02:17.437Z,4.54
2016-11-11T00:03:17.457Z,4.6
2016-11-11T00:04:17.458Z,4.54
2016-11-11T00:05:17.400Z,4.6
2016-11-11T00:06:17.400Z,4.54
2016-11-11T00:07:17.450Z,4.56
2016-11-11T00:08:17.470Z,4.57
2016-11-11T00:09:17.389Z,4.57
2016-11-11T00:10:17.332Z,4.61
2016-11-11T00:11:17.405Z,4.6
2016-11-11T00:12:17.413Z,4.64
2016-11-11T00:13:17.406Z,4.53
2016-11-11T00:14:17.417Z,4.61
2016-11-11T00:15:17.416Z,4.6
2016-11-11T00:16:17.415Z,4.54
2016-11-11T00:17:17.430Z,4.53
2016-11-11T00:18:17.345Z,4.61
2016-11-11T00:19:17.496Z,4.44
2016-11-11T00:20:17.430Z,4.51
2016-11-11T00:21:17.359Z,4.51
2016-11-11T00:22:17.392Z,4.53
2016-11-11T00:23:17.422Z,4.57
2016-11-11T00:24:17.450Z,4.47
2016-11-11T00:25:17.437Z,4.57
2016-11-11T00:26:17.441Z,4.58
2016-11-11T00:27:17.441Z,4.53
2016-11-11T00:28:17.369Z,4.64
2016-11-11T00:29:17.512Z,4.51
2016-11-11T00:30:17.438Z,4.56
2016-11-11T00:31:17.667Z,4.72
2016-11-11T00:32:17.471Z,4.56
2016-11-11T00:33:17.396Z,4.53
2016-11-11T00:34:17.385Z,4.53
2016-11-11T00:35:17.464Z,4.64
2016-11-11T00:36:17.400Z,4.66
2016-11-11T00:37:17.465Z,4.56
2016-11-11T00:38:17.574Z,4.64
2016-11-11T00:39:17.558Z,4.58
2016-11-11T00:40:17.480Z,4.53
2016-11-11T00:41:17.479Z,4.48
2016-11-11T00:42:17.487Z,4.58
2016-11-11T00:43:17.418Z,4.6
2016-11-11T00:44:17.498Z,4.54
2016-11-11T00:45:17.495Z,4.6
2016-11-11T00:46:17.507Z,4.6
2016-11-11T00:47:17.581Z,4.6
2016-11-11T00:48:17.431Z,4.57
2016-11-11T00:49:17.522Z,4.66
2016-11-11T00:50:17.579Z,4.64
2016-11-11T00:51:17.579Z,4.51
2016-11-11T00:52:17.444Z,4.64
2016-11-11T00:53:17.498Z,4.61
2016-11-11T00:54:17.460Z,4.56
2016-11-11T00:55:17.604Z,4.54
2016-11-11T00:56:17.458Z,4.57
2016-11-11T00:57:17.517Z,4.58
2016-11-11T00:58:17.526Z,4.56
2016-11-11T00:59:17.525Z,4.51
2016-11-11T01:00:17.603Z,4.58
2016-11-11T01:01:17.530Z,4.61
2016-11-11T01:02:17.538Z,4.56
2016-11-11T01:03:17.610Z,4.56
2016-11-11T01:04:17.606Z,4.56
2016-11-11T01:05:17.564Z,4.6
2016-11-11T01:06:17.627Z,4.68
2016-11-11T01:07:17.555Z,4.6
2016-11-11T01:08:17.478Z,4.68
2016-11-11T01:09:17.495Z,4.6
2016-11-11T01:10:17.573Z,4.72
2016-11-11T01:11:17.565Z,4.56
2016-11-11T01:12:17.582Z,4.61
2016-11-11T01:13:17.482Z,4.6
2016-11-11T01:14:17.543Z,4.66
2016-11-11T01:15:17.649Z,4.66
2016-11-11T01:16:17.578Z,4.64
2016-11-11T01:17:17.586Z,4.66
2016-11-11T01:18:17.665Z,4.64
2016-11-11T01:19:17.506Z,4.61
2016-11-11T01:20:17.662Z,4.68
2016-11-11T01:21:17.596Z,4.6
2016-11-11T01:22:17.664Z,4.58
2016-11-11T01:23:17.596Z,4.61
2016-11-11T01:24:17.672Z,4.69
2016-11-11T01:25:17.670Z,4.68
2016-11-11T01:26:17.627Z,4.57
2016-11-11T01:27:17.622Z,4.65
2016-11-11T01:28:17.534Z,4.64
2016-11-11T01:29:17.610Z,4.58
2016-11-11T01:30:17.643Z,4.61
2016-11-11T01:31:18.116Z,4.61
2016-11-11T01:32:17.553Z,4.6
2016-11-11T01:33:17.616Z,4.47
2016-11-11T01:34:17.707Z,4.56
2016-11-11T01:35:17.544Z,4.56
2016-11-11T01:36:17.553Z,4.56
2016-11-11T01:37:17.655Z,4.64
2016-11-11T01:38:17.727Z,4.61
2016-11-11T01:39:17.554Z,4.58
2016-11-11T01:40:17.712Z,4.58
2016-11-11T01:41:17.638Z,4.65
2016-11-11T01:42:17.656Z,4.51
2016-11-11T01:43:17.732Z,4.54
2016-11-11T01:44:17.654Z,4.58
2016-11-11T01:45:17.653Z,4.58
2016-11-11T01:46:17.736Z,4.54
2016-11-11T01:47:17.664Z,4.5
2016-11-11T01:48:17.594Z,4.64
2016-11-11T01:49:17.727Z,4.44
2016-11-11T01:50:17.595Z,4.64
2016-11-11T01:51:17.594Z,4.57
2016-11-11T01:52:17.671Z,4.54
2016-11-11T01:53:17.696Z,4.54
2016-11-11T01:54:17.677Z,4.51
2016-11-11T01:55:17.747Z,4.46
2016-11-11T01:56:17.678Z,4.42
2016-11-11T01:57:17.683Z,4.5
2016-11-11T01:58:17.624Z,4.47
2016-11-11T01:59:17.691Z,4.58
2016-11-11T02:00:17.774Z,4.48
2016-11-11T02:01:17.697Z,4.46
2016-11-11T02:02:17.703Z,4.5
2016-11-11T02:03:17.713Z,4.42
2016-11-11T02:04:17.699Z,4.5
2016-11-11T02:05:17.701Z,4.51
2016-11-11T02:06:17.719Z,4.47
2016-11-11T02:07:17.778Z,4.48
2016-11-11T02:08:17.785Z,4.48
2016-11-11T02:09:17.972Z,4.53
2016-11-11T02:10:17.803Z,4.51
2016-11-11T02:11:17.725Z,4.47
2016-11-11T02:12:17.730Z,4.51
2016-11-11T02:13:17.827Z,4.48
2016-11-11T02:14:17.830Z,4.46
2016-11-11T02:15:17.734Z,4.4
2016-11-11T02:16:17.812Z,4.5
2016-11-11T02:17:17.740Z,4.42
2016-11-11T02:18:17.729Z,4.51
2016-11-11T02:19:17.665Z,4.44
2016-11-11T02:20:17.753Z,4.51
2016-11-11T02:21:17.760Z,4.4
2016-11-11T02:22:17.821Z,4.54
2016-11-11T02:23:17.842Z,4.51
2016-11-11T02:24:17.755Z,4.5
2016-11-11T02:25:17.860Z,4.39
2016-11-11T02:26:17.732Z,4.47
2016-11-11T02:27:17.773Z,4.44
2016-11-11T02:28:17.690Z,4.39
2016-11-11T02:29:17.705Z,4.39
2016-11-11T02:30:17.787Z,4.53
2016-11-11T02:31:17.703Z,4.4
2016-11-11T02:32:17.780Z,4.33
2016-11-11T02:33:17.860Z,4.44
2016-11-11T02:34:17.711Z,4.5
2016-11-11T02:35:17.728Z,4.42
2016-11-11T02:36:17.862Z,4.46
2016-11-11T02:37:17.729Z,4.4
2016-11-11T02:38:17.722Z,4.39
2016-11-11T02:39:17.813Z,4.44
2016-11-11T02:40:17.819Z,4.42
2016-11-11T02:41:17.915Z,4.4
2016-11-11T02:42:17.883Z,4.4
2016-11-11T02:43:17.813Z,4.38
2016-11-11T02:44:17.886Z,4.47
2016-11-11T02:45:17.903Z,4.38
2016-11-11T02:46:17.846Z,4.33
2016-11-11T02:47:17.819Z,4.33
2016-11-11T02:48:17.832Z,4.33
2016-11-11T02:49:17.816Z,4.39
2016-11-11T02:50:17.908Z,4.4
2016-11-11T02:51:17.826Z,4.39
2016-11-11T02:52:17.759Z,4.42
2016-11-11T02:53:17.763Z,4.44
2016-11-11T02:54:17.925Z,4.36
2016-11-11T02:55:17.769Z,4.38
2016-11-11T02:56:17.779Z,4.35
2016-11-11T02:57:17.877Z,4.33
2016-11-11T02:58:17.851Z,4.26
2016-11-11T02:59:17.922Z,4.32
2016-11-11T03:00:17.978Z,4.33
2016-11-11T03:01:17.857Z,4.4
2016-11-11T03:02:17.882Z,4.21
2016-11-11T03:03:17.964Z,4.39
2016-11-11T03:04:17.960Z,4.38
2016-11-11T03:05:17.866Z,4.32
2016-11-11T03:06:17.904Z,4.35
2016-11-11T03:07:17.875Z,4.35
2016-11-11T03:08:17.878Z,4.32
2016-11-11T03:09:17.874Z,4.32
2016-11-11T03:10:17.952Z,4.2
2016-11-11T03:11:17.893Z,4.29
2016-11-11T03:12:17.820Z,4.36
2016-11-11T03:13:17.994Z,4.35
2016-11-11T03:14:17.911Z,4.39
2016-11-11T03:15:18.006Z,4.33
2016-11-11T03:16:18.146Z,4.21
2016-11-11T03:17:17.994Z,4.24
2016-11-11T03:18:17.928Z,4.33
2016-11-11T03:19:17.906Z,4.33
2016-11-11T03:20:17.918Z,4.26
2016-11-11T03:21:17.943Z,4.26
2016-11-11T03:22:17.851Z,4.35
2016-11-11T03:23:17.910Z,4.18
2016-11-11T03:24:17.938Z,4.35
2016-11-11T03:25:18.008Z,4.29
2016-11-11T03:26:17.928Z,4.26
2016-11-11T03:27:17.854Z,4.35
2016-11-11T03:28:17.860Z,4.29
2016-11-11T03:29:17.961Z,4.33
2016-11-11T03:30:18.044Z,4.2
2016-11-11T03:31:17.964Z,4.14
2016-11-11T03:32:18.051Z,4.32
2016-11-11T03:33:18.050Z,4.35
2016-11-11T03:34:18.069Z,4.18
2016-11-11T03:35:18.042Z,4.21
2016-11-11T03:36:17.904Z,4.3
2016-11-11T03:37:18.024Z,4.18
2016-11-11T03:38:17.919Z,4.33
2016-11-11T03:39:17.986Z,4.38
2016-11-11T03:40:17.987Z,4.32
2016-11-11T03:41:17.990Z,4.2
2016-11-11T03:42:18.095Z,4.24
2016-11-11T03:43:18.074Z,4.18
2016-11-11T03:44:17.989Z,4.14
2016-11-11T03:45:17.952Z,4.26
2016-11-11T03:46:18.009Z,4.35
2016-11-11T03:47:18.009Z,4.26
2016-11-11T03:48:18.093Z,4.28
2016-11-11T03:49:17.944Z,4.21
2016-11-11T03:50:18.054Z,4.29
2016-11-11T03:51:18.021Z,4.22
2016-11-11T03:52:18.037Z,4.22
2016-11-11T03:53:18.028Z,4.22
2016-11-11T03:54:18.114Z,4.29
2016-11-11T03:55:18.120Z,4.22
2016-11-11T03:56:18.113Z,4.2
2016-11-11T03:57:18.113Z,4.29
2016-11-11T03:58:17.945Z,4.22
2016-11-11T03:59:18.050Z,4.33
2016-11-11T04:00:18.051Z,4.17
2016-11-11T04:01:18.139Z,4.17
2016-11-11T04:02:18.049Z,4.3
2016-11-11T04:03:18.045Z,4.3
2016-11-11T04:04:18.054Z,4.33
2016-11-11T04:05:18.054Z,4.26
2016-11-11T04:06:18.081Z,4.33
2016-11-11T04:07:18.061Z,4.2
2016-11-11T04:08:17.990Z,4.3
2016-11-11T04:09:18.068Z,4.22
2016-11-11T04:10:17.990Z,4.35
2016-11-11T04:11:17.987Z,4.12
2016-11-11T04:12:18.067Z,4.35
2016-11-11T04:13:18.218Z,4.29
2016-11-11T04:14:18.084Z,4.35
2016-11-11T04:15:18.154Z,4.36
2016-11-11T04:16:18.081Z,4.28
2016-11-11T04:17:18.013Z,4.32
2016-11-11T04:18:18.197Z,4.44
2016-11-11T04:19:18.017Z,4.29
2016-11-11T04:20:18.089Z,4.28
2016-11-11T04:21:18.174Z,4.35
2016-11-11T04:22:18.121Z,4.32
2016-11-11T04:23:18.098Z,4.36
2016-11-11T04:24:18.188Z,4.33
2016-11-11T04:25:18.038Z,4.32
2016-11-11T04:26:18.194Z,4.26
2016-11-11T04:27:18.111Z,4.3
2016-11-11T04:28:18.024Z,4.35
2016-11-11T04:29:18.032Z,4.32
2016-11-11T04:30:18.033Z,4.29
2016-11-11T04:31:18.018Z,4.38
2016-11-11T04:32:18.119Z,4.32
2016-11-11T04:33:18.201Z,4.3
2016-11-11T04:34:18.197Z,4.35
2016-11-11T04:35:18.111Z,4.28
2016-11-11T04:36:18.128Z,4.3
2016-11-11T04:37:18.246Z,4.26
2016-11-11T04:38:18.127Z,4.21
2016-11-11T04:39:18.133Z,4.32
2016-11-11T04:40:18.074Z,4.18
2016-11-11T04:41:18.060Z,4.28
2016-11-11T04:42:18.140Z,4.3
2016-11-11T04:43:18.061Z,4.3
2016-11-11T04:44:18.220Z,4.22
2016-11-11T04:45:18.217Z,4.18
2016-11-11T04:46:18.162Z,4.33
2016-11-11T04:47:18.239Z,4.22
2016-11-11T04:48:18.224Z,4.22
2016-11-11T04:49:18.247Z,4.28
2016-11-11T04:50:18.172Z,4.2
2016-11-11T04:51:18.157Z,4.22
2016-11-11T04:52:18.185Z,4.22
2016-11-11T04:53:18.172Z,4.17
2016-11-11T04:54:18.194Z,4.2
2016-11-11T04:55:18.164Z,4.18
2016-11-11T04:56:18.170Z,4.2
2016-11-11T04:57:18.187Z,4.21
2016-11-11T04:58:18.263Z,4.14
2016-11-11T04:59:18.267Z,4.2
2016-11-11T05:00:18.111Z,4.18
2016-11-11T05:01:18.188Z,4.18
2016-11-11T05:02:18.184Z,4.17
2016-11-11T05:03:18.293Z,4.21
2016-11-11T05:04:18.202Z,4.15
2016-11-11T05:05:18.145Z,4.07
2016-11-11T05:06:18.280Z,4.03
2016-11-11T05:07:18.201Z,4.12
2016-11-11T05:08:18.241Z,4.04
2016-11-11T05:09:18.139Z,4.12
2016-11-11T05:10:18.233Z,4.14
2016-11-11T05:11:18.136Z,4.11
2016-11-11T05:12:18.159Z,4.07
2016-11-11T05:13:18.143Z,4.08
2016-11-11T05:14:18.145Z,4.14
2016-11-11T05:15:18.175Z,4
2016-11-11T05:16:18.160Z,3.97
2016-11-11T05:17:18.236Z,4.04
2016-11-11T05:18:18.258Z,3.99
2016-11-11T05:19:18.256Z,4.03
2016-11-11T05:20:18.239Z,3.9
2016-11-11T05:21:18.328Z,4
2016-11-11T05:22:18.263Z,3.97
2016-11-11T05:23:18.258Z,4.02
2016-11-11T05:24:18.260Z,3.97
2016-11-11T05:25:18.191Z,4.35
2016-11-11T05:26:18.191Z,3.96
2016-11-11T05:27:18.268Z,3.96
2016-11-11T05:28:18.279Z,3.89
2016-11-11T05:29:18.278Z,4.07
2016-11-11T05:30:18.277Z,3.93
2016-11-11T05:31:18.350Z,3.99
2016-11-11T05:32:18.272Z,4.02
2016-11-11T05:33:18.349Z,3.89
2016-11-11T05:34:18.294Z,3.92
2016-11-11T05:35:18.286Z,3.93
2016-11-11T05:36:18.202Z,4
2016-11-11T05:37:18.309Z,3.93
2016-11-11T05:38:18.225Z,3.96
2016-11-11T05:39:18.314Z,3.9
2016-11-11T05:40:18.306Z,3.93
2016-11-11T05:41:18.306Z,3.92
2016-11-11T05:42:18.251Z,3.94
2016-11-11T05:43:18.313Z,3.92
2016-11-11T05:44:18.304Z,3.86
2016-11-11T05:45:18.399Z,3.92
2016-11-11T05:46:18.357Z,3.84
2016-11-11T05:47:18.418Z,3.97
2016-11-11T05:48:18.405Z,3.99
2016-11-11T05:49:18.336Z,3.85
2016-11-11T05:50:18.325Z,3.89
2016-11-11T05:51:18.340Z,3.89
2016-11-11T05:52:18.402Z,3.93
2016-11-11T05:53:18.511Z,3.89
2016-11-11T05:54:18.348Z,3.81
2016-11-11T05:55:18.426Z,3.93
2016-11-11T05:56:18.423Z,3.84
2016-11-11T05:57:18.269Z,3.86
2016-11-11T05:58:18.370Z,3.85
2016-11-11T05:59:18.350Z,3.85
2016-11-11T06:00:18.362Z,3.84
2016-11-11T06:01:18.351Z,3.93
2016-11-11T06:02:18.346Z,3.76
2016-11-11T06:03:18.291Z,3.82
2016-11-11T06:04:18.362Z,3.76
2016-11-11T06:05:18.281Z,3.89
2016-11-11T06:06:18.448Z,3.78
2016-11-11T06:07:18.379Z,3.84
2016-11-11T06:08:18.375Z,3.92
2016-11-11T06:09:18.475Z,3.86
2016-11-11T06:10:18.375Z,3.86
2016-11-11T06:11:18.383Z,3.92
2016-11-11T06:12:18.390Z,3.85
2016-11-11T06:13:18.337Z,3.92
2016-11-11T06:14:18.496Z,3.85
2016-11-11T06:15:18.396Z,3.86
2016-11-11T06:16:18.398Z,3.82
2016-11-11T06:17:18.475Z,3.9
2016-11-11T06:18:18.346Z,3.92
2016-11-11T06:19:18.413Z,3.94
2016-11-11T06:20:18.419Z,3.93
2016-11-11T06:21:18.345Z,3.82
2016-11-11T06:22:18.341Z,3.92
2016-11-11T06:23:18.427Z,3.92
2016-11-11T06:24:18.349Z,3.81
2016-11-11T06:25:18.522Z,4
2016-11-11T06:26:18.428Z,3.84
2016-11-11T06:27:18.418Z,3.9
2016-11-11T06:28:18.436Z,3.92
2016-11-11T06:29:18.447Z,3.92
2016-11-11T06:30:18.386Z,3.9
2016-11-11T06:31:18.454Z,3.92
2016-11-11T06:32:18.437Z,3.86
2016-11-11T06:33:18.374Z,3.92
2016-11-11T06:34:18.524Z,3.84
2016-11-11T06:35:18.452Z,3.89
2016-11-11T06:36:18.533Z,3.76
2016-11-11T06:37:18.466Z,3.89
2016-11-11T06:38:18.462Z,3.74
2016-11-11T06:39:18.486Z,3.85
2016-11-11T06:40:18.461Z,3.78
2016-11-11T06:41:18.516Z,3.78
2016-11-11T06:42:18.483Z,3.79
2016-11-11T06:43:18.477Z,3.94
2016-11-11T06:44:18.401Z,3.89
2016-11-11T06:45:18.580Z,3.89
2016-11-11T06:46:18.575Z,3.89
2016-11-11T06:47:18.593Z,3.92
2016-11-11T06:48:18.497Z,3.9
2016-11-11T06:49:18.480Z,3.92
2016-11-11T06:50:18.575Z,3.94
2016-11-11T06:51:18.489Z,3.86
2016-11-11T06:52:18.505Z,3.81
2016-11-11T06:53:18.506Z,3.85
2016-11-11T06:54:18.505Z,3.85
2016-11-11T06:55:18.426Z,3.89
2016-11-11T06:56:18.505Z,3.86
2016-11-11T06:57:18.602Z,3.84
2016-11-11T06:58:18.431Z,3.81
2016-11-11T06:59:18.519Z,3.89
2016-11-11T07:00:18.456Z,3.92
2016-11-11T07:01:18.603Z,3.99
2016-11-11T07:02:18.667Z,3.92
2016-11-11T07:03:18.531Z,3.9
2016-11-11T07:04:18.609Z,3.86
2016-11-11T07:05:18.548Z,3.93
2016-11-11T07:06:18.575Z,3.86
2016-11-11T07:07:18.553Z,3.85
2016-11-11T07:08:18.548Z,3.93
2016-11-11T07:09:18.634Z,3.93
2016-11-11T07:10:18.621Z,3.93
2016-11-11T07:11:18.480Z,3.84
2016-11-11T07:12:18.569Z,3.82
2016-11-11T07:13:19.199Z,3.85
2016-11-11T07:14:18.560Z,3.89
2016-11-11T07:15:18.584Z,3.9
2016-11-11T07:16:18.496Z,3.86
2016-11-11T07:17:18.491Z,3.9
2016-11-11T07:18:18.614Z,3.86
2016-11-11T07:19:18.589Z,3.92
2016-11-11T07:20:18.533Z,3.92
2016-11-11T07:21:18.704Z,4
2016-11-11T07:22:18.581Z,4
2016-11-11T07:23:18.604Z,3.96
2016-11-11T07:24:18.588Z,3.96
2016-11-11T07:25:18.584Z,3.86
2016-11-11T07:26:18.622Z,3.97
2016-11-11T07:27:18.532Z,3.9
2016-11-11T07:28:18.623Z,3.86
2016-11-11T07:29:18.543Z,3.94
2016-11-11T07:30:18.550Z,3.82
2016-11-11T07:31:18.534Z,3.92
2016-11-11T07:32:18.527Z,3.81
2016-11-11T07:33:18.620Z,3.84
2016-11-11T07:34:18.643Z,3.85
2016-11-11T07:35:18.714Z,3.9
2016-11-11T07:36:18.623Z,3.89
2016-11-11T07:37:18.647Z,3.82
2016-11-11T07:38:18.627Z,3.85
2016-11-11T07:39:18.630Z,3.89
2016-11-11T07:40:18.633Z,3.9
2016-11-11T07:41:18.664Z,3.9
2016-11-11T07:42:18.730Z,3.86
2016-11-11T07:43:18.731Z,3.9
2016-11-11T07:44:18.670Z,3.93
2016-11-11T07:45:18.760Z,3.93
2016-11-11T07:46:18.653Z,3.92
2016-11-11T07:47:18.655Z,3.93
2016-11-11T07:48:18.617Z,3.9
2016-11-11T07:49:18.692Z,3.86
2016-11-11T07:50:18.737Z,3.96
2016-11-11T07:51:18.673Z,3.92
2016-11-11T07:52:18.624Z,3.92
2016-11-11T07:53:18.584Z,3.89
2016-11-11T07:54:19.025Z,3.94
2016-11-11T07:55:18.718Z,3.97
2016-11-11T07:56:18.808Z,3.99
2016-11-11T07:57:18.682Z,3.96
2016-11-11T07:58:18.712Z,4
2016-11-11T07:59:18.695Z,3.97
2016-11-11T08:00:18.700Z,4
2016-11-11T08:01:18.777Z,4
2016-11-11T08:02:18.651Z,4.03
2016-11-11T08:03:18.817Z,4.02
2016-11-11T08:04:18.774Z,4.11
2016-11-11T08:05:18.762Z,3.99
2016-11-11T08:06:18.748Z,3.86
2016-11-11T08:07:18.735Z,3.9
2016-11-11T08:08:18.773Z,3.96
2016-11-11T08:09:18.798Z,3.89
2016-11-11T08:10:18.645Z,3.96
2016-11-11T08:11:18.732Z,3.86
2016-11-11T08:12:18.802Z,3.94
2016-11-11T08:13:18.727Z,3.85
2016-11-11T08:14:18.817Z,3.84
2016-11-11T08:15:18.752Z,3.92
2016-11-11T08:16:19.963Z,3.92
2016-11-11T08:17:20.460Z,3.81
2016-11-11T08:18:18.742Z,3.84
2016-11-11T08:19:18.793Z,3.75
2016-11-11T08:20:18.865Z,3.92
2016-11-11T08:21:18.768Z,3.92
2016-11-11T08:22:18.767Z,4.03
2016-11-11T08:23:18.685Z,3.9
2016-11-11T08:24:18.771Z,3.93
2016-11-11T08:25:18.777Z,3.93
2016-11-11T08:26:18.760Z,3.82
2016-11-11T08:27:18.811Z,3.93
2016-11-11T08:28:18.701Z,3.86
2016-11-11T08:29:18.777Z,3.81
2016-11-11T08:30:18.888Z,3.9
2016-11-11T08:31:18.860Z,3.92
2016-11-11T08:32:18.783Z,3.86
2016-11-11T08:33:18.721Z,3.86
2016-11-11T08:34:18.779Z,3.85
2016-11-11T08:35:18.813Z,3.92
2016-11-11T08:36:18.912Z,3.92
2016-11-11T08:37:18.871Z,3.97
2016-11-11T08:38:18.969Z,4
2016-11-11T08:39:18.807Z,4
2016-11-11T08:40:18.950Z,3.94
2016-11-11T08:41:18.888Z,3.96
2016-11-11T08:42:18.732Z,4
2016-11-11T08:43:18.897Z,3.99
2016-11-11T08:44:18.791Z,4.04
2016-11-11T08:45:18.776Z,4.07
2016-11-11T08:46:18.869Z,4.02
2016-11-11T08:47:18.852Z,4
2016-11-11T08:48:18.871Z,3.96
2016-11-11T08:49:18.895Z,3.85
2016-11-11T08:50:19.417Z,4
2016-11-11T08:51:18.970Z,3.92
2016-11-11T08:52:18.922Z,3.97
2016-11-11T08:53:18.771Z,4.07
2016-11-11T08:54:18.851Z,3.97
2016-11-11T08:55:18.881Z,3.96
2016-11-11T08:56:18.848Z,3.96
2016-11-11T08:57:18.923Z,3.9
2016-11-11T08:58:19.017Z,3.86
2016-11-11T08:59:18.979Z,3.92
2016-11-11T09:00:18.920Z,3.85
2016-11-11T09:01:18.864Z,3.93
2016-11-11T09:02:19.060Z,3.99
2016-11-11T09:03:18.892Z,3.86
2016-11-11T09:04:18.880Z,3.92
2016-11-11T09:05:18.810Z,3.86
2016-11-11T09:06:18.818Z,3.84
2016-11-11T09:07:18.967Z,3.82
2016-11-11T09:08:18.953Z,3.86
2016-11-11T09:09:18.966Z,3.74
2016-11-11T09:10:18.823Z,3.69
2016-11-11T09:11:18.890Z,3.71
2016-11-11T09:12:20.252Z,3.66
2016-11-11T09:13:20.304Z,3.71
2016-11-11T09:14:19.784Z,3.66
2016-11-11T09:15:19.276Z,3.57
2016-11-11T09:16:19.771Z,3.6
2016-11-11T09:17:19.351Z,3.71
2016-11-11T09:18:19.993Z,3.76
2016-11-11T09:19:18.822Z,3.66
2016-11-11T09:20:18.818Z,3.71
2016-11-11T09:21:18.940Z,3.78
2016-11-11T09:22:18.971Z,3.76
2016-11-11T09:23:18.843Z,3.89
2016-11-11T09:24:18.921Z,3.89
2016-11-11T09:25:19.035Z,3.9
2016-11-11T09:26:18.876Z,3.93
2016-11-11T09:27:18.850Z,3.96
2016-11-11T09:28:18.937Z,4.12
2016-11-11T09:29:18.937Z,4.24
2016-11-11T09:30:18.963Z,4.28
2016-11-11T09:31:19.695Z,4.24
2016-11-11T09:32:18.950Z,3.99
2016-11-11T09:33:18.957Z,4.03
2016-11-11T09:34:18.961Z,4.15
2016-11-11T09:35:19.017Z,4.12
2016-11-11T09:36:19.068Z,4.07
2016-11-11T09:37:18.976Z,4.24
2016-11-11T09:38:18.880Z,4.2
2016-11-11T09:39:18.947Z,4.15
2016-11-11T09:40:18.976Z,3.99
2016-11-11T09:41:19.146Z,3.97
2016-11-11T09:42:19.032Z,3.99
2016-11-11T09:43:19.901Z,3.9
2016-11-11T09:44:19.025Z,3.86
2016-11-11T09:45:19.086Z,4
2016-11-11T09:46:20.308Z,3.89
2016-11-11T09:47:19.965Z,3.94
2016-11-11T09:48:18.996Z,3.78
2016-11-11T09:49:19.060Z,3.92
2016-11-11T09:50:18.931Z,3.86
2016-11-11T09:51:19.046Z,4.12
2016-11-11T09:52:26.629Z,4.26
2016-11-11T09:53:19.080Z,4.47
2016-11-11T09:54:19.001Z,4.79
2016-11-11T09:55:19.284Z,4.9
2016-11-11T09:56:19.974Z,4.9
2016-11-11T09:57:21.361Z,4.72
2016-11-11T09:58:47.049Z,4.84
2016-11-11T10:04:14.130Z,5.03
2016-11-11T10:04:21.101Z,4.94
2016-11-11T10:05:24.352Z,4.97
2016-11-11T10:06:20.999Z,4.94
2016-11-11T10:07:20.965Z,4.87
2016-11-11T10:08:21.049Z,4.66
2016-11-11T10:09:20.980Z,4.61
2016-11-11T10:10:21.084Z,4.24
2016-11-11T10:11:21.103Z,4.22
2016-11-11T10:12:21.119Z,4.07
2016-11-11T10:13:21.272Z,4.11
2016-11-11T10:14:21.872Z,4.18
2016-11-11T10:15:21.795Z,4.22
2016-11-11T10:16:35.780Z,4.21
2016-11-11T10:17:21.068Z,4.44
2016-11-11T10:18:26.722Z,4.39
2016-11-11T10:20:31.868Z,4.29
2016-11-11T10:20:49.260Z,4.32
2016-11-11T10:21:50.423Z,4.48
2016-11-11T10:22:48.247Z,4.39
2016-11-11T10:23:52.719Z,4.47
2016-11-11T10:24:48.350Z,4.35
2016-11-11T10:25:48.415Z,4.17
2016-11-11T10:26:48.380Z,4.18
2016-11-11T10:27:48.454Z,4.14
2016-11-11T10:28:48.283Z,4.26
2016-11-11T10:29:48.981Z,4.24
2016-11-11T10:30:49.825Z,4.18
2016-11-11T10:31:48.904Z,4.26
2016-11-11T10:32:48.415Z,4.24
2016-11-11T10:34:19.377Z,4.24
2016-11-11T10:35:22.223Z,4.21
2016-11-11T10:36:07.319Z,4.29
2016-11-11T10:36:53.767Z,4.11
2016-11-11T10:37:53.703Z,4.17
2016-11-11T10:38:53.792Z,4.15
2016-11-11T10:39:53.621Z,4.21
2016-11-11T10:40:53.854Z,4.22
2016-11-11T10:41:53.664Z,4.32
2016-11-11T10:42:53.858Z,4.42
2016-11-11T10:43:53.819Z,4.57
2016-11-11T10:44:57.733Z,4.79
2016-11-11T10:45:54.775Z,5.23
2016-11-11T10:46:53.668Z,5.59
2016-11-11T10:47:53.725Z,5.82
2016-11-11T10:48:53.742Z,5.84
2016-11-11T10:49:53.874Z,5.84
2016-11-11T10:50:53.811Z,5.84
2016-11-11T10:51:53.750Z,6.13
2016-11-11T10:53:19.199Z,6.37
2016-11-11T10:53:53.776Z,6.17
2016-11-11T10:54:53.876Z,6.05
2016-11-11T10:55:54.490Z,6.24
2016-11-11T10:57:34.361Z,6.44
2016-11-11T10:58:23.710Z,6.57
2016-11-11T10:58:53.880Z,6.6
2016-11-11T10:59:53.814Z,6.72
2016-11-11T11:00:53.988Z,6.75
2016-11-11T11:01:53.772Z,6.47
2016-11-11T11:02:53.696Z,6.6
2016-11-11T11:03:53.772Z,6.82
2016-11-11T11:04:53.783Z,6.86
2016-11-11T11:05:53.882Z,6.95
2016-11-11T11:06:53.912Z,7.11
2016-11-11T11:07:53.892Z,6.94
2016-11-11T11:08:53.791Z,7.3
2016-11-11T11:09:53.881Z,7.51
2016-11-11T11:10:53.949Z,7.59
2016-11-11T11:11:53.862Z,7.71
2016-11-11T11:12:53.810Z,7.63
2016-11-11T11:13:53.869Z,7.89
2016-11-11T11:14:54.300Z,7.92
2016-11-11T11:15:53.841Z,8.1
2016-11-11T11:16:53.744Z,8.25
2016-11-11T11:17:53.962Z,8.62
2016-11-11T11:18:53.976Z,8.86
2016-11-11T11:19:53.950Z,8.89
2016-11-11T11:20:53.818Z,8.68
2016-11-11T11:21:53.833Z,8.03
2016-11-11T11:22:53.987Z,7.93
2016-11-11T11:23:53.956Z,7.77
2016-11-11T11:24:53.891Z,7.54
2016-11-11T11:25:53.823Z,7.09
2016-11-11T11:26:53.947Z,6.86
2016-11-11T11:27:53.841Z,6.61
2016-11-11T11:28:53.856Z,6.47
2016-11-11T11:29:53.910Z,6.05
2016-11-11T11:30:53.934Z,5.82
2016-11-11T11:31:54.029Z,5.66
2016-11-11T11:32:53.960Z,5.54
2016-11-11T11:33:53.816Z,5.52
2016-11-11T11:34:53.870Z,5.82
2016-11-11T11:35:53.769Z,5.85
2016-11-11T11:36:53.895Z,6.05
2016-11-11T11:37:53.971Z,6.2
2016-11-11T11:38:53.916Z,6.05
2016-11-11T11:39:53.836Z,5.96
2016-11-11T11:40:53.940Z,6.15
2016-11-11T11:41:53.887Z,6.14
2016-11-11T11:42:53.889Z,6.21
2016-11-11T11:43:53.955Z,6.33
2016-11-11T11:44:53.935Z,6.18
2016-11-11T11:45:53.932Z,5.82
2016-11-11T11:46:53.958Z,5.66
2016-11-11T11:47:53.841Z,5.78
2016-11-11T11:48:54.072Z,5.96
2016-11-11T11:49:53.969Z,6.25
2016-11-11T11:50:54.048Z,6.42
2016-11-11T11:51:54.679Z,6.79
2016-11-11T11:52:53.984Z,7.19
2016-11-11T11:53:53.856Z,7.31
2016-11-11T11:54:54.063Z,7.05
2016-11-11T11:55:54.012Z,7.22
2016-11-11T11:56:54.957Z,7.03
2016-11-11T11:57:53.980Z,6.76
2016-11-11T11:58:53.883Z,6.82
2016-11-11T11:59:54.261Z,6.86
2016-11-11T12:00:54.175Z,7.05
2016-11-11T12:01:53.916Z,7.08
2016-11-11T12:02:58.187Z,6.8
2016-11-11T12:03:53.968Z,6.76
2016-11-11T12:04:54.083Z,6.65
2016-11-11T12:05:54.001Z,6.83
2016-11-11T12:06:54.003Z,6.79
2016-11-11T12:07:53.953Z,6.88
2016-11-11T12:08:53.934Z,7.22
2016-11-11T12:09:54.008Z,7.34
2016-11-11T12:10:54.030Z,7.34
2016-11-11T12:11:53.969Z,7.41
2016-11-11T12:12:54.012Z,7.4
2016-11-11T12:13:54.142Z,6.9
2016-11-11T12:14:54.118Z,6.36
2016-11-11T12:15:54.051Z,6.21
2016-11-11T12:16:54.031Z,5.96
2016-11-11T12:17:54.019Z,5.87
2016-11-11T12:18:54.027Z,5.87
2016-11-11T12:19:54.041Z,5.75
2016-11-11T12:20:54.075Z,5.89
2016-11-11T12:21:54.682Z,5.82
2016-11-11T12:22:54.118Z,6.02
2016-11-11T12:23:54.003Z,6.14
2016-11-11T12:24:54.004Z,6.17
2016-11-11T12:25:54.032Z,6.26
2016-11-11T12:26:54.123Z,6.2
2016-11-11T12:27:54.857Z,6.29
2016-11-11T12:28:54.031Z,6.26
2016-11-11T12:29:54.008Z,6.21
2016-11-11T12:30:54.012Z,5.82
2016-11-11T12:31:54.010Z,5.84
2016-11-11T12:32:53.990Z,5.85
2016-11-11T12:33:54.042Z,5.78
2016-11-11T12:34:54.052Z,5.8
2016-11-11T12:35:54.069Z,5.78
2016-11-11T12:36:53.965Z,5.96
2016-11-11T12:37:54.206Z,6.07
2016-11-11T12:38:54.059Z,6
2016-11-11T12:39:53.988Z,6.14
2016-11-11T12:40:54.086Z,6.26
2016-11-11T12:41:54.277Z,6.03
2016-11-11T12:42:54.130Z,6.18
2016-11-11T12:43:54.161Z,6.31
2016-11-11T12:44:54.055Z,6.55
2016-11-11T12:45:57.502Z,6.51
2016-11-11T12:46:54.098Z,6.52
2016-11-11T12:47:54.218Z,6.36
2016-11-11T12:48:54.200Z,6.4
2016-11-11T12:49:54.054Z,6.43
2016-11-11T12:50:54.304Z,6.28
2016-11-11T12:51:54.379Z,6.21
2016-11-11T12:52:54.581Z,6.29
2016-11-11T12:53:54.229Z,6.31
2016-11-11T12:54:54.041Z,6.18
2016-11-11T12:55:54.129Z,6.14
2016-11-11T12:56:54.106Z,6
2016-11-11T12:57:54.289Z,6.18
2016-11-11T12:58:54.448Z,6.21
2016-11-11T12:59:54.167Z,6.24
2016-11-11T13:00:54.046Z,6.1
2016-11-11T13:01:54.077Z,5.98
2016-11-11T13:02:54.108Z,5.89
2016-11-11T13:03:54.883Z,5.82
2016-11-11T13:04:54.706Z,5.75
2016-11-11T13:05:54.043Z,5.77
2016-11-11T13:06:54.122Z,5.6
2016-11-11T13:07:54.133Z,5.63
2016-11-11T13:08:54.101Z,5.69
2016-11-11T13:09:54.088Z,5.66
2016-11-11T13:10:54.140Z,5.64
2016-11-11T13:11:54.156Z,5.51
2016-11-11T13:12:54.097Z,5.39
2016-11-11T13:13:54.143Z,5.54
2016-11-11T13:14:54.249Z,5.46
2016-11-11T13:15:54.091Z,5.36
2016-11-11T13:16:54.087Z,5.33
2016-11-11T13:17:54.206Z,5.37
2016-11-11T13:18:54.193Z,5.26
2016-11-11T13:19:54.243Z,5.15
2016-11-11T13:20:54.331Z,5.33
2016-11-11T13:21:54.158Z,5.26
2016-11-11T13:22:54.259Z,5.34
2016-11-11T13:23:54.300Z,5.28
2016-11-11T13:24:54.160Z,5.33
2016-11-11T13:25:54.127Z,5.45
2016-11-11T13:26:54.196Z,5.52
2016-11-11T13:27:54.265Z,5.49